Time;durP1;ratioP1;P1;durP2;ratioP2;P2;SDS_P1;SDS_P2;PMS_P1;PMS_P2;Temp;Humidity;BMP_temperature;BMP_pressure;BME280_temperature;BME280_humidity;BME280_pressure;Samples;Min_cycle;Max_cycle;Signal;HPM_P1;HPM_P2
2022/09/12 00:02:00;;;;;;;23.83;7.93;;;;;;;12.43;100.00;101219.59;6044701;28;20033;-63
2022/09/12 00:04:55;;;;;;;17.67;7.27;;;;;;;12.46;100.00;101218.47;6046440;28;20060;-64
2022/09/12 00:07:51;;;;;;;16.60;6.83;;;;;;;12.37;100.00;101203.38;6046276;28;20037;-63
2022/09/12 00:10:46;;;;;;;14.38;6.68;;;;;;;12.53;100.00;101203.56;6044553;28;20064;-63
2022/09/12 00:13:42;;;;;;;16.20;6.67;;;;;;;12.62;100.00;101213.34;6046127;28;20041;-63
2022/09/12 00:16:38;;;;;;;16.70;6.72;;;;;;;12.43;100.00;101210.78;6044967;28;20041;-63
2022/09/12 00:19:33;;;;;;;18.42;7.13;;;;;;;12.48;100.00;101200.53;6042546;28;20029;-63
2022/09/12 00:22:28;;;;;;;14.70;7.10;;;;;;;12.65;100.00;101213.06;6045505;28;20033;-63
2022/09/12 00:25:24;;;;;;;15.67;7.13;;;;;;;12.18;100.00;101208.75;6040148;28;20069;-63
2022/09/12 00:28:19;;;;;;;16.00;7.03;;;;;;;12.26;100.00;101190.25;6045942;28;20120;-63
2022/09/12 00:31:17;;;;;;;14.37;7.17;;;;;;;12.19;100.00;101205.13;6045067;28;20034;-63
2022/09/12 00:34:13;;;;;;;15.82;6.28;;;;;;;12.38;100.00;101207.72;6045900;28;20604;-64
2022/09/12 00:37:08;;;;;;;15.80;7.07;;;;;;;12.30;100.00;101189.84;6045846;28;20030;-63
2022/09/12 00:40:03;;;;;;;18.00;8.07;;;;;;;11.94;100.00;101202.09;6044944;28;20041;-63
2022/09/12 00:42:59;;;;;;;17.75;7.32;;;;;;;12.19;100.00;101200.63;6045911;28;20108;-64
2022/09/12 00:45:56;;;;;;;15.27;6.70;;;;;;;11.78;100.00;101190.38;6045071;28;20048;-63
2022/09/12 00:49:18;;;;;;;18.85;8.00;;;;;;;11.94;100.00;101186.16;6044252;28;20203;-64
2022/09/12 00:52:34;;;;;;;20.77;7.93;;;;;;;11.84;100.00;101177.38;6043832;28;20385;-64
2022/09/12 00:55:41;;;;;;;15.02;7.40;;;;;;;11.52;100.00;101183.94;6060966;28;20041;-62
2022/09/12 00:58:42;;;;;;;15.75;7.40;;;;;;;11.72;100.00;101185.63;6056229;28;20109;-64
2022/09/12 01:01:39;;;;;;;15.65;7.22;;;;;;;11.99;100.00;101199.00;6036851;28;20444;-63
2022/09/12 01:04:36;;;;;;;21.85;8.82;;;;;;;11.95;100.00;101187.00;6047882;28;20038;-62
2022/09/12 01:07:34;;;;;;;16.30;7.65;;;;;;;12.01;100.00;101190.91;6044393;28;20481;-63
2022/09/12 01:10:30;;;;;;;15.02;7.97;;;;;;;11.73;100.00;101182.00;6044895;28;20103;-63
2022/09/12 01:13:26;;;;;;;16.92;7.88;;;;;;;11.60;100.00;101171.63;6044069;28;20705;-64
2022/09/12 01:16:22;;;;;;;14.27;6.78;;;;;;;11.74;100.00;101189.00;6045661;28;20117;-64
2022/09/12 01:19:47;;;;;;;16.40;7.50;;;;;;;12.01;100.00;101188.25;6044139;28;20022;-63
2022/09/12 01:23:09;;;;;;;15.88;7.78;;;;;;;11.80;100.00;101168.00;6044930;28;20030;-63
2022/09/12 01:26:56;;;;;;;17.98;8.32;;;;;;;11.55;100.00;101183.66;6050790;28;20112;-63
2022/09/12 01:30:25;;;;;;;17.48;8.18;;;;;;;11.72;100.00;101181.16;5990501;28;20475;-63
2022/09/12 01:33:29;;;;;;;20.60;8.85;;;;;;;11.82;100.00;101187.28;6006062;28;20050;-65
2022/09/12 01:36:47;;;;;;;19.88;8.15;;;;;;;11.71;100.00;101190.09;6045180;28;20043;-66
2022/09/12 01:39:50;;;;;;;19.40;8.95;;;;;;;11.68;100.00;101174.41;6064301;28;20075;-63
2022/09/12 01:42:53;;;;;;;20.75;8.68;;;;;;;11.61;100.00;101167.97;6044778;28;20105;-64
2022/09/12 01:46:12;;;;;;;22.45;9.13;;;;;;;11.75;100.00;101175.56;6042424;28;20091;-64
2022/09/12 01:49:31;;;;;;;21.10;8.82;;;;;;;11.80;100.00;101168.00;6064511;28;20566;-63
2022/09/12 01:52:38;;;;;;;21.00;8.48;;;;;;;11.85;100.00;101165.72;6062993;28;20048;-65
2022/09/12 01:56:01;;;;;;;23.73;10.43;;;;;;;11.92;100.00;101158.03;6054313;28;20037;-63
2022/09/12 01:59:07;;;;;;;23.58;9.05;;;;;;;11.82;100.00;101165.19;6035554;28;20038;-64
2022/09/12 02:02:08;;;;;;;19.25;8.10;;;;;;;11.89;100.00;101163.63;6056911;28;20070;-66
2022/09/12 02:05:17;;;;;;;24.08;9.65;;;;;;;11.92;100.00;101150.91;6047266;28;20380;-64
2022/09/12 02:08:19;;;;;;;24.63;9.82;;;;;;;11.91;100.00;101151.88;6047349;28;20069;-63
2022/09/12 02:11:14;;;;;;;25.23;9.55;;;;;;;11.88;100.00;101154.81;6046680;28;20034;-64
2022/09/12 02:14:19;;;;;;;22.80;9.77;;;;;;;11.74;100.00;101141.97;6058749;28;20029;-64
2022/09/12 02:17:20;;;;;;;23.05;9.82;;;;;;;11.67;100.00;101135.53;6034214;28;20199;-64
2022/09/12 02:20:22;;;;;;;22.67;9.90;;;;;;;11.97;100.00;101146.97;6063433;28;20038;-64
2022/09/12 02:23:26;;;;;;;20.50;8.15;;;;;;;11.80;100.00;101157.34;6061158;28;20038;-63
2022/09/12 02:26:26;;;;;;;18.70;8.88;;;;;;;11.64;100.00;101151.75;6041296;28;20033;-63
2022/09/12 02:29:22;;;;;;;21.13;8.90;;;;;;;11.68;100.00;101149.66;6044005;28;20038;-64
2022/09/12 02:32:29;;;;;;;21.13;9.63;;;;;;;11.69;100.00;101156.66;6062724;28;20362;-64
2022/09/12 02:35:48;;;;;;;21.77;9.63;;;;;;;11.66;100.00;101147.13;6046897;28;20364;-63
2022/09/12 02:38:45;;;;;;;19.67;9.15;;;;;;;11.55;100.00;101131.34;6043837;28;20045;-65
2022/09/12 02:41:40;;;;;;;24.38;9.18;;;;;;;11.62;100.00;101132.47;6044563;28;20034;-65
2022/09/12 02:44:36;;;;;;;20.17;9.20;;;;;;;11.67;100.00;101138.19;6047014;28;20045;-65
2022/09/12 02:47:42;;;;;;;20.75;9.52;;;;;;;11.60;100.00;101123.81;6046342;28;20064;-64
2022/09/12 02:50:38;;;;;;;22.30;9.93;;;;;;;11.60;100.00;101129.13;6044652;28;20025;-64
2022/09/12 02:53:34;;;;;;;24.50;9.43;;;;;;;11.57;100.00;101140.03;6035476;28;20033;-64
2022/09/12 02:56:30;;;;;;;21.27;9.15;;;;;;;11.63;100.00;101142.09;6046238;28;20034;-63
2022/09/12 02:59:25;;;;;;;21.47;8.90;;;;;;;11.43;100.00;101132.50;6047379;28;20080;-65
2022/09/12 03:02:33;;;;;;;17.73;8.25;;;;;;;11.51;100.00;101132.63;6044857;28;20293;-64
2022/09/12 03:05:58;;;;;;;20.90;8.48;;;;;;;11.59;100.00;101143.38;6045268;28;20029;-63
2022/09/12 03:09:00;;;;;;;20.67;8.63;;;;;;;11.48;100.00;101127.59;6062719;28;20104;-63
2022/09/12 03:12:06;;;;;;;20.10;8.70;;;;;;;11.30;100.00;101131.97;6046512;28;20117;-64
2022/09/12 03:15:11;;;;;;;18.42;8.23;;;;;;;11.44;100.00;101128.84;6045683;28;20164;-64
2022/09/12 03:18:16;;;;;;;16.70;7.93;;;;;;;11.29;100.00;101136.41;6062200;28;20366;-64
2022/09/12 03:21:49;;;;;;;20.08;7.47;;;;;;;11.19;100.00;101140.06;6060993;28;20085;-63
2022/09/12 03:25:02;;;;;;;18.15;7.65;;;;;;;11.41;100.00;101139.78;6046226;28;20034;-63
2022/09/12 03:28:00;;;;;;;17.73;7.55;;;;;;;11.20;100.00;101136.41;6045778;28;20041;-64
2022/09/12 03:30:56;;;;;;;17.88;7.90;;;;;;;11.01;100.00;101126.63;6055344;28;20053;-64
2022/09/12 03:33:52;;;;;;;15.77;6.97;;;;;;;11.09;100.00;101129.41;6043507;28;20046;-63
2022/09/12 03:36:47;;;;;;;15.60;7.20;;;;;;;10.98;100.00;101120.78;6045624;28;20060;-65
2022/09/12 03:39:43;;;;;;;18.85;7.70;;;;;;;11.01;100.00;101109.84;6046991;28;20058;-65
2022/09/12 03:42:39;;;;;;;17.63;7.53;;;;;;;11.16;100.00;101140.34;6044885;28;20068;-63
2022/09/12 03:45:35;;;;;;;19.80;8.33;;;;;;;11.04;100.00;101122.84;6032784;28;20034;-64
2022/09/12 03:48:31;;;;;;;17.25;7.38;;;;;;;11.01;100.00;101123.97;6046841;28;20030;-64
2022/09/12 03:51:26;;;;;;;16.40;7.60;;;;;;;11.13;100.00;101132.66;6044543;28;20030;-63
2022/09/12 03:54:22;;;;;;;16.98;7.65;;;;;;;11.00;100.00;101132.94;6044346;28;20038;-64
2022/09/12 03:57:17;;;;;;;16.70;7.93;;;;;;;11.10;100.00;101135.56;6039599;28;20033;-65
2022/09/12 04:00:12;;;;;;;20.00;7.85;;;;;;;10.85;100.00;101117.53;6045973;28;20030;-64
2022/09/12 04:03:08;;;;;;;18.97;7.67;;;;;;;10.82;100.00;101131.09;6035088;28;20034;-63
2022/09/12 04:06:03;;;;;;;17.23;7.93;;;;;;;10.81;100.00;101129.41;6044899;28;20323;-64
2022/09/12 04:08:58;;;;;;;16.98;8.20;;;;;;;10.86;100.00;101122.72;6045323;28;20038;-64
2022/09/12 04:11:54;;;;;;;17.83;7.47;;;;;;;10.79;100.00;101129.53;6045498;28;20469;-64
2022/09/12 04:14:49;;;;;;;15.87;6.47;;;;;;;10.70;100.00;101128.56;6036712;28;20033;-64
2022/09/12 04:17:44;;;;;;;20.27;8.18;;;;;;;10.81;100.00;101126.75;6046624;28;20030;-63
2022/09/12 04:20:40;;;;;;;15.63;7.20;;;;;;;10.82;100.00;101149.66;6025141;28;20418;-63
2022/09/12 04:23:35;;;;;;;18.83;8.00;;;;;;;10.93;100.00;101141.56;6042116;28;20037;-65
2022/09/12 04:26:30;;;;;;;17.87;8.17;;;;;;;10.94;100.00;101135.28;6046048;28;20122;-63
2022/09/12 04:29:26;;;;;;;15.60;6.83;;;;;;;10.96;100.00;101128.00;6043703;28;20117;-63
2022/09/12 04:32:22;;;;;;;16.88;7.30;;;;;;;10.75;100.00;101136.09;6044330;28;20346;-63
2022/09/12 04:35:17;;;;;;;14.93;7.50;;;;;;;10.88;100.00;101126.06;6041625;28;20053;-63
2022/09/12 04:38:13;;;;;;;16.33;7.83;;;;;;;10.77;100.00;101137.63;6046026;28;20303;-62
2022/09/12 04:41:16;;;;;;;18.00;7.95;;;;;;;11.04;100.00;101146.75;6044589;28;20273;-62
2022/09/12 04:44:13;;;;;;;16.05;7.10;;;;;;;10.83;100.00;101132.75;6046229;28;20041;-62
2022/09/12 04:47:09;;;;;;;14.48;6.75;;;;;;;10.86;100.00;101148.41;6044964;28;20034;-63
2022/09/12 04:50:04;;;;;;;16.10;7.40;;;;;;;10.87;100.00;101127.03;6036141;28;20114;-63
2022/09/12 04:53:00;;;;;;;16.42;7.60;;;;;;;11.02;100.00;101148.69;6032189;28;20276;-63
2022/09/12 04:56:00;;;;;;;16.80;7.33;;;;;;;10.83;100.00;101141.56;6028841;28;20045;-64
2022/09/12 04:58:58;;;;;;;15.75;7.32;;;;;;;10.38;100.00;101135.84;6039839;28;20037;-62
2022/09/12 05:01:53;;;;;;;14.60;6.90;;;;;;;10.65;100.00;101132.59;6044971;28;20088;-62
2022/09/12 05:04:48;;;;;;;15.13;7.27;;;;;;;10.81;100.00;101134.72;6048984;28;20109;-63
2022/09/12 05:07:44;;;;;;;18.83;8.43;;;;;;;10.93;100.00;101139.75;6050386;28;20269;-63
2022/09/12 05:10:40;;;;;;;15.82;7.25;;;;;;;10.86;100.00;101135.97;6040906;28;20290;-64
2022/09/12 05:13:35;;;;;;;19.08;8.30;;;;;;;10.77;100.00;101140.28;6047967;28;20034;-64
2022/09/12 05:16:31;;;;;;;19.52;8.15;;;;;;;10.88;100.00;101135.81;6044686;28;20057;-63
2022/09/12 05:19:28;;;;;;;20.52;8.48;;;;;;;10.76;100.00;101138.59;6049972;28;20072;-63
2022/09/12 05:22:24;;;;;;;19.40;8.23;;;;;;;10.72;100.00;101150.47;6039633;28;20161;-63
2022/09/12 05:25:19;;;;;;;20.75;9.10;;;;;;;10.64;100.00;101142.34;6048089;28;20044;-62
2022/09/12 05:28:15;;;;;;;29.67;9.63;;;;;;;10.72;100.00;101158.44;6049857;28;20470;-62
2022/09/12 05:31:13;;;;;;;25.20;8.43;;;;;;;11.50;100.00;101154.84;6049128;28;20117;-63
2022/09/12 05:34:09;;;;;;;18.52;9.15;;;;;;;12.04;100.00;101148.91;6049328;28;20459;-63
2022/09/12 05:37:04;;;;;;;17.63;7.70;;;;;;;11.92;100.00;101148.25;6049415;28;20041;-63
2022/09/12 05:40:02;;;;;;;18.37;8.43;;;;;;;11.48;100.00;101146.19;6045001;28;20034;-64
2022/09/12 05:42:57;;;;;;;18.52;7.63;;;;;;;11.51;100.00;101145.06;6044942;28;20028;-62
2022/09/12 05:45:59;;;;;;;25.20;7.87;;;;;;;11.96;100.00;101167.38;6045375;28;20037;-63
2022/09/12 05:48:55;;;;;;;16.02;7.85;;;;;;;12.63;100.00;101159.16;6038865;28;20281;-64
2022/09/12 05:51:51;;;;;;;17.67;7.32;;;;;;;12.53;98.87;101166.34;6043721;28;20034;-63
2022/09/12 05:54:47;;;;;;;17.38;8.25;;;;;;;12.90;98.84;101164.47;6034814;28;20034;-64
2022/09/12 05:57:44;;;;;;;15.93;7.53;;;;;;;12.51;97.23;101163.00;6036814;28;20031;-63
2022/09/12 06:00:40;;;;;;;17.23;7.40;;;;;;;12.97;98.02;101176.19;6044041;28;20045;-67
2022/09/12 06:03:43;;;;;;;19.83;7.97;;;;;;;12.52;97.46;101170.84;6039537;28;20041;-63
2022/09/12 06:06:40;;;;;;;19.25;8.75;;;;;;;12.75;99.10;101176.59;6048702;28;20486;-64
2022/09/12 06:09:35;;;;;;;21.15;8.65;;;;;;;12.81;97.62;101173.34;6048904;28;20026;-64
2022/09/12 06:12:32;;;;;;;21.33;8.67;;;;;;;12.61;98.52;101169.09;6035268;28;20044;-62
2022/09/12 06:15:27;;;;;;;26.55;9.60;;;;;;;12.83;98.77;101170.50;6047722;28;20033;-64
2022/09/12 06:18:22;;;;;;;23.50;8.83;;;;;;;13.04;98.10;101171.09;6048618;28;20029;-64
2022/09/12 06:21:18;;;;;;;17.87;7.73;;;;;;;13.50;95.62;101157.59;6047850;28;20741;-64
2022/09/12 06:24:14;;;;;;;20.17;9.40;;;;;;;13.45;94.15;101159.03;6029130;28;20113;-66
2022/09/12 06:27:10;;;;;;;18.88;8.65;;;;;;;13.70;94.61;101160.88;6034589;28;20030;-64
2022/09/12 06:30:05;;;;;;;20.03;8.73;;;;;;;14.00;93.50;101148.94;6040002;28;20485;-64
2022/09/12 06:33:01;;;;;;;17.70;8.00;;;;;;;14.04;92.76;101143.16;6037297;28;20105;-64
2022/09/12 06:36:05;;;;;;;19.60;8.07;;;;;;;14.26;90.97;101139.94;6034798;28;20386;-65
2022/09/12 06:39:06;;;;;;;20.98;8.05;;;;;;;14.20;91.85;101148.56;6030216;28;20027;-64
2022/09/12 06:42:02;;;;;;;18.30;8.35;;;;;;;14.81;90.33;101151.00;6045448;28;20061;-63
2022/09/12 06:44:57;;;;;;;19.50;9.05;;;;;;;14.37;91.24;101146.84;6025513;28;20029;-64
2022/09/12 06:47:53;;;;;;;20.10;8.67;;;;;;;14.32;93.66;101149.16;6028674;28;20046;-62
2022/09/12 06:51:03;;;;;;;21.98;9.02;;;;;;;14.73;92.50;101136.81;6023261;28;20358;-63
2022/09/12 06:53:59;;;;;;;27.92;8.80;;;;;;;15.13;89.11;101144.06;6034110;28;20030;-64
2022/09/12 06:56:55;;;;;;;20.27;9.30;;;;;;;14.87;89.16;101139.69;6035990;28;20462;-63
2022/09/12 06:59:50;;;;;;;20.90;9.30;;;;;;;14.93;89.12;101148.88;6042041;28;20038;-64
2022/09/12 07:02:45;;;;;;;23.53;9.10;;;;;;;15.22;88.47;101137.75;6024516;28;20494;-63
2022/09/12 07:05:40;;;;;;;19.53;8.43;;;;;;;15.58;87.91;101135.59;6040916;28;20034;-64
2022/09/12 07:08:36;;;;;;;17.23;8.03;;;;;;;15.39;87.14;101134.91;6046525;28;20034;-64
2022/09/12 07:11:33;;;;;;;17.33;6.90;;;;;;;15.79;86.59;101160.00;6045247;28;20284;-63
2022/09/12 07:14:29;;;;;;;17.48;7.40;;;;;;;15.71;86.33;101138.63;6032633;28;20037;-62
2022/09/12 07:17:24;;;;;;;19.88;8.20;;;;;;;15.91;84.68;101140.75;6030975;28;20050;-64
2022/09/12 07:20:20;;;;;;;16.33;7.03;;;;;;;16.08;83.86;101139.72;6042228;28;20041;-64
2022/09/12 07:23:15;;;;;;;14.82;7.57;;;;;;;16.51;82.78;101159.81;6044851;28;20089;-64
2022/09/12 07:26:12;;;;;;;17.50;7.03;;;;;;;17.03;80.50;101154.72;6045716;28;20107;-64
2022/09/12 07:29:14;;;;;;;15.15;6.55;;;;;;;17.14;80.46;101153.50;6046394;28;20048;-65
2022/09/12 07:32:10;;;;;;;14.40;6.63;;;;;;;17.42;78.92;101156.47;6042095;28;20049;-64
2022/09/12 07:35:06;;;;;;;12.63;6.82;;;;;;;17.77;76.99;101154.00;6036772;28;20049;-63
2022/09/12 07:38:02;;;;;;;12.50;6.47;;;;;;;18.20;76.10;101132.78;6043841;28;20470;-64
2022/09/12 07:40:57;;;;;;;13.00;7.05;;;;;;;17.88;75.74;101143.88;6044588;28;20045;-65
2022/09/12 07:43:54;;;;;;;14.70;7.00;;;;;;;17.94;74.91;101133.22;6042254;28;20114;-65
2022/09/12 07:46:50;;;;;;;14.93;8.00;;;;;;;18.22;73.56;101131.56;6045959;28;20505;-64
2022/09/12 07:49:45;;;;;;;12.30;6.90;;;;;;;18.09;74.81;101133.22;6046727;28;20041;-63
2022/09/12 07:52:40;;;;;;;15.33;6.97;;;;;;;18.14;74.98;101141.56;6031217;28;20026;-63
2022/09/12 07:55:35;;;;;;;14.93;7.33;;;;;;;18.25;73.42;101151.84;6041741;28;20033;-64
2022/09/12 07:58:32;;;;;;;13.30;7.33;;;;;;;18.13;74.46;101147.94;6041162;28;20058;-64
2022/09/12 08:01:27;;;;;;;18.65;8.20;;;;;;;18.15;75.10;101145.94;6045714;28;20029;-64
2022/09/12 08:04:23;;;;;;;16.77;7.50;;;;;;;18.26;74.29;101145.47;6037339;28;20477;-64
2022/09/12 08:07:18;;;;;;;11.68;6.47;;;;;;;18.29;74.58;101148.59;6039018;28;20137;-64
2022/09/12 08:10:15;;;;;;;13.43;7.27;;;;;;;18.36;74.15;101143.34;6044648;28;20026;-63
2022/09/12 08:13:10;;;;;;;13.18;6.82;;;;;;;18.71;74.41;101147.13;6046196;28;20627;-65
2022/09/12 08:16:11;;;;;;;15.90;6.77;;;;;;;19.40;71.42;101148.31;6034319;28;20141;-64
2022/09/12 08:19:06;;;;;;;10.77;6.10;;;;;;;19.69;70.00;101144.63;6035300;28;20369;-64
2022/09/12 08:22:01;;;;;;;12.07;6.03;;;;;;;19.71;70.36;101156.88;6040117;28;20041;-65
2022/09/12 08:24:57;;;;;;;11.57;6.40;;;;;;;19.63;68.40;101142.72;6046233;28;20030;-65
2022/09/12 08:27:53;;;;;;;9.65;5.55;;;;;;;19.99;68.50;101152.34;6033091;28;20026;-65
2022/09/12 08:30:48;;;;;;;13.43;6.45;;;;;;;19.62;69.40;101151.84;6044627;28;20030;-64
2022/09/12 08:33:44;;;;;;;11.85;5.60;;;;;;;19.62;70.60;101149.97;6045266;28;20045;-63
2022/09/12 08:36:39;;;;;;;10.57;5.80;;;;;;;20.33;68.69;101156.91;6033714;28;20038;-65
2022/09/12 08:39:35;;;;;;;11.45;6.20;;;;;;;20.64;66.55;101143.81;6039989;28;20049;-64
2022/09/12 08:42:48;;;;;;;11.13;5.73;;;;;;;21.03;66.44;101139.59;6048664;28;20037;-65
2022/09/12 08:46:03;;;;;;;10.32;5.43;;;;;;;21.38;64.02;101143.84;6047982;28;20373;-64
2022/09/12 08:48:59;;;;;;;9.18;4.65;;;;;;;21.28;64.11;101154.19;6049077;28;20748;-65
2022/09/12 08:51:56;;;;;;;12.75;6.32;;;;;;;21.10;63.54;101152.09;6041201;28;20081;-63
2022/09/12 08:54:54;;;;;;;11.00;6.05;;;;;;;21.17;65.24;101138.63;6052262;28;20031;-65
2022/09/12 08:57:50;;;;;;;9.90;5.10;;;;;;;21.64;63.54;101145.72;6044843;28;20054;-64
2022/09/12 09:01:23;;;;;;;11.18;4.85;;;;;;;21.89;61.71;101146.78;6043055;28;20389;-66
2022/09/12 09:04:44;;;;;;;9.68;4.90;;;;;;;21.87;62.29;101140.78;6044092;28;20045;-63
2022/09/12 09:08:06;;;;;;;10.75;5.45;;;;;;;21.85;62.39;101134.72;6026991;28;20057;-64
2022/09/12 09:11:20;;;;;;;12.70;5.43;;;;;;;21.70;61.79;101136.78;6036841;28;20045;-65
2022/09/12 09:14:48;;;;;;;11.70;4.82;;;;;;;21.89;60.98;101138.69;6048291;28;20046;-65
2022/09/12 09:17:47;;;;;;;10.43;4.57;;;;;;;21.96;59.98;101107.09;6038632;28;20046;-65
2022/09/12 09:20:45;;;;;;;13.48;5.53;;;;;;;22.11;59.08;101126.59;6036061;28;20038;-65
2022/09/12 09:23:43;;;;;;;9.85;5.63;;;;;;;22.07;59.52;101106.44;6040838;28;20049;-65
2022/09/12 09:26:44;;;;;;;13.27;6.35;;;;;;;22.41;58.26;101119.66;6043271;28;20385;-65
2022/09/12 09:29:44;;;;;;;10.02;5.20;;;;;;;22.31;58.99;101099.53;6047611;28;20030;-65
2022/09/12 09:32:40;;;;;;;14.07;5.97;;;;;;;22.38;57.01;101106.56;6061984;28;20030;-64
2022/09/12 09:35:45;;;;;;;9.80;5.57;;;;;;;22.85;57.03;101112.63;6042460;28;20104;-65
2022/09/12 09:39:04;;;;;;;8.55;4.68;;;;;;;22.67;56.77;101107.09;6048409;28;20038;-65
2022/09/12 09:42:21;;;;;;;11.07;5.50;;;;;;;22.79;56.24;101113.50;6037202;28;20092;-65
2022/09/12 09:45:20;;;;;;;9.52;5.10;;;;;;;22.39;57.83;101094.69;6037719;28;20481;-64
2022/09/12 09:48:36;;;;;;;7.93;4.13;;;;;;;22.20;55.96;101098.31;6042673;28;20049;-64
2022/09/12 09:51:37;;;;;;;10.07;5.00;;;;;;;22.41;56.06;101092.63;6047576;28;20109;-65
2022/09/12 09:54:39;;;;;;;9.10;4.35;;;;;;;21.69;58.90;101100.03;6061447;28;20057;-63
2022/09/12 09:57:34;;;;;;;9.25;5.28;;;;;;;21.73;59.31;101098.59;6045626;28;20117;-65
2022/09/12 10:00:34;;;;;;;9.33;5.13;;;;;;;21.91;58.91;101079.88;6037682;28;20046;-64
2022/09/12 10:03:31;;;;;;;9.20;4.32;;;;;;;22.19;58.44;101072.34;6047427;28;20029;-65
2022/09/12 10:06:31;;;;;;;11.63;5.78;;;;;;;22.52;56.56;101073.03;6040548;28;20676;-64
2022/09/12 10:09:29;;;;;;;10.80;5.13;;;;;;;22.37;57.24;101064.34;6046985;28;20042;-65
2022/09/12 10:12:27;;;;;;;8.07;4.60;;;;;;;22.62;55.25;101063.63;6046843;28;20053;-65
2022/09/12 10:15:28;;;;;;;11.65;4.40;;;;;;;22.68;53.93;101073.59;6040795;28;20470;-65
2022/09/12 10:18:34;;;;;;;8.82;4.07;;;;;;;22.83;52.92;101082.28;6027075;28;20038;-65
2022/09/12 10:21:35;;;;;;;9.43;5.18;;;;;;;22.20;52.26;101068.59;6047814;28;20030;-64
2022/09/12 10:24:36;;;;;;;6.50;4.28;;;;;;;22.20;51.96;101067.75;6047079;28;20075;-64
2022/09/12 10:27:32;;;;;;;6.50;3.53;;;;;;;22.59;51.83;101064.03;6042787;28;20042;-65
2022/09/12 10:30:27;;;;;;;8.18;4.72;;;;;;;22.23;54.48;101059.25;6043543;28;20500;-65
2022/09/12 10:33:24;;;;;;;8.95;3.83;;;;;;;22.54;54.14;101067.41;6047472;28;20069;-64
2022/09/12 10:36:20;;;;;;;7.90;4.35;;;;;;;22.08;54.44;101064.88;6048355;28;20396;-64
2022/09/12 10:39:17;;;;;;;7.15;3.97;;;;;;;22.32;53.99;101057.94;6046661;28;20465;-65
2022/09/12 10:42:14;;;;;;;7.90;3.90;;;;;;;22.61;53.07;101051.16;6042653;28;20033;-65
2022/09/12 10:45:35;;;;;;;7.65;3.53;;;;;;;22.30;53.99;101066.28;6048054;28;20469;-65
2022/09/12 10:48:30;;;;;;;8.07;4.35;;;;;;;21.82;55.32;101062.22;6036935;28;20034;-64
2022/09/12 10:51:27;;;;;;;8.90;4.55;;;;;;;21.82;54.53;101048.72;6047238;28;20140;-65
2022/09/12 10:54:25;;;;;;;8.38;4.25;;;;;;;22.18;53.60;101057.16;6046634;28;20104;-64
2022/09/12 10:57:32;;;;;;;7.70;4.65;;;;;;;21.89;54.42;101049.56;6045715;28;20045;-64
2022/09/12 11:00:29;;;;;;;9.75;4.00;;;;;;;22.40;53.71;101031.50;6036544;28;20064;-64
2022/09/12 11:04:03;;;;;;;5.70;3.90;;;;;;;23.01;53.02;101044.47;6046104;28;20036;-65
2022/09/12 11:07:22;;;;;;;8.68;4.68;;;;;;;23.06;51.62;101031.97;6062534;28;20037;-65
2022/09/12 11:10:33;;;;;;;6.53;2.78;;;;;;;23.86;50.35;101026.66;6045207;28;20041;-66
2022/09/12 11:13:54;;;;;;;7.25;4.30;;;;;;;24.07;49.67;101034.34;6039612;28;20369;-65
2022/09/12 11:17:14;;;;;;;5.80;3.28;;;;;;;23.66;48.44;101030.41;6056221;28;20385;-66
2022/09/12 11:20:39;;;;;;;5.85;3.70;;;;;;;24.01;47.57;101029.81;6040005;28;20106;-65
2022/09/12 11:24:12;;;;;;;4.95;2.90;;;;;;;23.56;49.60;101030.06;6039104;28;20046;-64
2022/09/12 11:27:44;;;;;;;7.95;3.90;;;;;;;22.87;50.09;101030.22;6035873;28;20707;-65
2022/09/12 11:31:11;;;;;;;7.88;3.90;;;;;;;22.50;52.01;101025.63;6035289;28;20056;-65
2022/09/12 11:34:10;;;;;;;7.50;3.95;;;;;;;22.26;52.77;101026.34;6041563;28;20057;-65
2022/09/12 11:37:29;;;;;;;7.22;4.35;;;;;;;21.95;52.88;101010.91;6044974;28;20510;-64
2022/09/12 11:40:29;;;;;;;6.68;3.33;;;;;;;22.75;51.55;101009.47;6043105;28;20069;-65
2022/09/12 11:43:37;;;;;;;6.22;3.42;;;;;;;22.85;51.40;101016.09;6040945;28;20110;-65
2022/09/12 11:46:35;;;;;;;4.97;2.60;;;;;;;23.16;50.87;101012.50;6042253;28;20041;-66
2022/09/12 11:49:35;;;;;;;7.00;2.75;;;;;;;22.98;50.40;100999.75;6041632;28;20087;-65
2022/09/12 11:52:36;;;;;;;4.68;3.35;;;;;;;22.85;49.06;101016.09;6044304;28;20033;-65
2022/09/12 11:55:40;;;;;;;3.47;1.90;;;;;;;22.93;48.64;101005.00;6061169;28;20120;-64
2022/09/12 11:58:36;;;;;;;3.85;2.10;;;;;;;22.63;49.93;101000.38;6060785;28;20065;-64
2022/09/12 12:01:34;;;;;;;6.50;4.10;;;;;;;22.35;50.29;101003.44;6034155;28;20121;-65
2022/09/12 12:04:36;;;;;;;4.50;2.40;;;;;;;22.62;50.93;101009.53;6044387;28;20037;-65
2022/09/12 12:07:48;;;;;;;4.10;2.28;;;;;;;22.70;48.98;101004.72;6039997;28;20038;-64
2022/09/12 12:10:49;;;;;;;3.95;2.30;;;;;;;22.54;50.15;101008.75;6042558;28;20039;-65
2022/09/12 12:13:57;;;;;;;3.28;2.20;;;;;;;23.70;47.33;101009.09;6043552;28;20042;-65
2022/09/12 12:16:52;;;;;;;3.45;2.03;;;;;;;22.92;48.42;100995.22;6045570;28;20473;-65
2022/09/12 12:19:57;;;;;;;3.67;2.40;;;;;;;22.71;49.79;101002.88;6043909;28;20036;-64
2022/09/12 12:22:53;;;;;;;4.38;2.35;;;;;;;23.01;48.50;100979.53;6044702;28;20620;-64
2022/09/12 12:25:54;;;;;;;3.60;2.08;;;;;;;23.57;48.50;100999.25;6043544;28;20069;-65
2022/09/12 12:28:49;;;;;;;4.32;2.75;;;;;;;23.45;49.37;101000.22;6033377;28;20142;-64
2022/09/12 12:32:02;;;;;;;5.00;2.33;;;;;;;23.61;49.21;100995.06;6036508;28;20061;-65
2022/09/12 12:35:09;;;;;;;3.17;2.13;;;;;;;23.49;49.08;100977.88;6038927;28;20277;-64
2022/09/12 12:38:44;;;;;;;4.13;2.20;;;;;;;22.93;50.67;100991.47;6056887;28;20033;-64
2022/09/12 12:41:44;;;;;;;3.17;1.90;;;;;;;23.34;50.38;100969.25;6037444;28;20061;-65
2022/09/12 12:44:46;;;;;;;;;;;;;;;23.48;49.26;100978.91;6038416;28;20041;-65
2022/09/12 12:47:43;;;;;;;3.63;2.13;;;;;;;23.03;48.61;100980.97;6034072;28;19929;-65
2022/09/12 12:50:38;;;;;;;3.70;1.70;;;;;;;23.25;49.41;100972.47;6040388;28;20077;-64
2022/09/12 12:53:34;;;;;;;3.47;1.80;;;;;;;23.40;50.14;100967.56;6037857;28;20038;-65
2022/09/12 12:56:39;;;;;;;2.65;1.73;;;;;;;23.42;48.98;100963.59;6032275;28;20292;-64
2022/09/12 12:59:34;;;;;;;3.97;1.60;;;;;;;23.28;47.05;100967.44;6038885;28;20037;-65
2022/09/12 13:02:40;;;;;;;2.50;1.37;;;;;;;23.28;47.39;100962.03;6041639;28;20029;-65
2022/09/12 13:05:50;;;;;;;2.42;1.50;;;;;;;23.12;47.27;100968.00;6035616;28;20044;-65
2022/09/12 13:08:55;;;;;;;3.42;1.50;;;;;;;23.18;46.92;100956.31;6035269;28;20041;-66
2022/09/12 13:12:22;;;;;;;2.35;1.40;;;;;;;23.43;47.08;100954.41;6032635;28;20026;-65
2022/09/12 13:15:47;;;;;;;3.72;1.95;;;;;;;23.39;46.38;100942.38;6025733;28;20081;-64
2022/09/12 13:18:45;;;;;;;2.50;1.42;;;;;;;23.72;46.73;100935.75;6039878;28;20041;-66
2022/09/12 13:21:55;;;;;;;4.15;1.70;;;;;;;23.17;45.91;100927.56;6039676;28;20034;-66
2022/09/12 13:24:51;;;;;;;2.03;1.48;;;;;;;23.31;47.59;100942.63;6039956;28;20091;-65
2022/09/12 13:28:01;;;;;;;4.82;1.52;;;;;;;23.73;46.87;100921.19;6049406;28;20107;-66
2022/09/12 13:31:23;;;;;;;3.70;1.27;;;;;;;23.94;45.07;100939.66;6040091;28;20034;-65
2022/09/12 13:34:25;;;;;;;3.22;1.48;;;;;;;23.77;46.07;100927.78;6056302;28;20029;-66
2022/09/12 13:37:46;;;;;;;3.03;1.90;;;;;;;23.64;45.14;100924.16;6040943;28;20025;-66
2022/09/12 13:41:03;;;;;;;2.30;1.42;;;;;;;23.32;47.39;100938.84;6054297;28;20104;-65
2022/09/12 13:43:59;;;;;;;2.92;1.40;;;;;;;23.70;46.49;100911.59;6027810;28;20038;-64
2022/09/12 13:46:57;;;;;;;2.60;1.42;;;;;;;24.36;46.32;100921.59;6042149;28;20116;-66
2022/09/12 13:49:53;;;;;;;3.83;1.45;;;;;;;24.17;45.08;100909.97;6036537;28;20606;-65
2022/09/12 13:52:52;;;;;;;2.20;1.30;;;;;;;24.56;45.01;100901.25;6048627;28;20030;-66
2022/09/12 13:55:52;;;;;;;3.08;1.40;;;;;;;24.18;44.31;100892.66;6048481;28;20042;-65